Time;durP1;ratioP1;P1;durP2;ratioP2;P2;SDS_P1;SDS_P2;PMS_P1;PMS_P2;Temp;Humidity;BMP_temperature;BMP_pressure;BME280_temperature;BME280_humidity;BME280_pressure;Samples;Min_cycle;Max_cycle;Signal;HPM_P1;HPM_P2
2021/03/02 00:02:15;;;;;;;11.55;5.78;;;;;;;3.30;81.38;100193.78;1781032;79;21225;-60
2021/03/02 00:04:45;;;;;;;11.30;5.45;;;;;;;3.28;81.36;100187.70;1781450;80;21158;-62
2021/03/02 00:07:16;;;;;;;11.85;5.30;;;;;;;3.28;81.42;100186.42;1781208;80;21288;-60
2021/03/02 00:09:45;;;;;;;10.25;5.60;;;;;;;3.30;81.48;100179.75;1781051;79;21581;-62
2021/03/02 00:12:15;;;;;;;10.88;5.78;;;;;;;3.34;81.55;100167.67;1779252;80;21588;-59
2021/03/02 00:14:42;;;;;;;10.53;5.55;;;;;;;3.36;81.45;100166.97;1781130;79;21147;-56
2021/03/02 00:17:30;;;;;;;10.93;5.90;;;;;;;3.34;81.42;100163.45;1780902;79;21593;-58
2021/03/02 00:20:08;;;;;;;10.03;5.58;;;;;;;3.34;81.48;100163.84;1781038;80;21107;-58
2021/03/02 00:22:48;;;;;;;11.20;5.42;;;;;;;3.33;81.46;100163.34;1781292;79;21657;-61
2021/03/02 00:25:16;;;;;;;9.45;4.87;;;;;;;3.32;81.51;100145.02;1780938;79;21213;-55
2021/03/02 00:27:45;;;;;;;8.98;5.25;;;;;;;3.26;81.54;100141.31;1781128;80;21162;-57
2021/03/02 00:30:16;;;;;;;13.08;6.25;;;;;;;3.23;81.64;100151.34;1780923;80;21146;-58
2021/03/02 00:32:46;;;;;;;10.25;5.62;;;;;;;3.19;81.78;100140.86;1780830;80;21155;-58
2021/03/02 00:35:15;;;;;;;10.58;5.92;;;;;;;3.17;81.78;100133.10;1781375;79;21301;-57
2021/03/02 00:37:48;;;;;;;8.88;5.05;;;;;;;3.15;81.95;100133.40;1780967;80;21549;-56
2021/03/02 00:40:17;;;;;;;11.63;5.95;;;;;;;3.14;82.12;100126.55;1780920;79;21171;-60
2021/03/02 00:42:48;;;;;;;9.80;5.35;;;;;;;3.18;82.18;100123.41;1780864;79;21217;-58
2021/03/02 00:45:17;;;;;;;10.23;5.28;;;;;;;3.22;82.18;100110.42;1781158;80;21154;-57
2021/03/02 00:47:44;;;;;;;12.65;5.92;;;;;;;3.24;82.03;100113.55;1781117;79;21313;-58
2021/03/02 00:50:13;;;;;;;10.25;6.30;;;;;;;3.19;82.06;100104.75;1780915;79;21151;-59
2021/03/02 00:52:41;;;;;;;10.80;5.80;;;;;;;3.14;82.15;100089.57;1781087;79;21316;-61
2021/03/02 00:55:10;;;;;;;10.35;5.95;;;;;;;3.07;82.17;100087.84;1781005;79;21174;-59
2021/03/02 00:57:38;;;;;;;11.63;5.80;;;;;;;2.98;82.42;100086.92;1781099;79;21281;-54
2021/03/02 01:00:10;;;;;;;12.70;5.90;;;;;;;2.87;82.60;100090.09;1780029;79;21723;-57
2021/03/02 01:02:39;;;;;;;12.13;5.95;;;;;;;2.78;82.91;100084.06;1780922;79;21632;-60
2021/03/02 01:05:09;;;;;;;13.68;6.00;;;;;;;2.73;83.12;100080.36;1781187;79;21147;-56
2021/03/02 01:07:39;;;;;;;12.25;6.08;;;;;;;2.67;83.33;100077.82;1781259;80;21564;-58
2021/03/02 01:10:11;;;;;;;11.73;6.65;;;;;;;2.57;83.59;100075.10;1781003;80;21280;-55
2021/03/02 01:12:40;;;;;;;11.18;7.10;;;;;;;2.50;83.84;100074.27;1781204;80;21166;-60
2021/03/02 01:15:10;;;;;;;13.30;6.78;;;;;;;2.44;84.07;100072.61;1781191;79;21165;-60
2021/03/02 01:17:38;;;;;;;13.55;7.47;;;;;;;2.39;84.31;100068.13;1781090;79;21146;-62
2021/03/02 01:20:08;;;;;;;14.43;7.65;;;;;;;2.38;84.54;100068.90;1781226;80;21103;-61
2021/03/02 01:22:37;;;;;;;13.53;6.70;;;;;;;2.29;84.70;100054.34;1781073;80;21163;-59
2021/03/02 01:25:10;;;;;;;13.25;7.28;;;;;;;2.29;84.70;100054.34;1781003;80;21229;-60
2021/03/02 01:27:38;;;;;;;14.65;7.53;;;;;;;2.24;85.04;100050.64;1780991;79;21705;-58
2021/03/02 01:30:11;;;;;;;14.98;8.10;;;;;;;2.17;85.25;100054.86;1781014;80;21146;-58
2021/03/02 01:32:40;;;;;;;12.30;7.00;;;;;;;2.11;85.48;100046.83;1782002;79;21691;-63
2021/03/02 01:35:11;;;;;;;14.05;7.47;;;;;;;2.08;85.80;100039.00;1794756;80;21161;-60
2021/03/02 01:37:39;;;;;;;13.32;7.53;;;;;;;2.06;86.04;100035.48;1794912;79;21118;-59
2021/03/02 01:40:12;;;;;;;15.13;8.70;;;;;;;2.02;86.19;100022.09;1794820;80;21154;-62
2021/03/02 01:42:42;;;;;;;15.18;7.90;;;;;;;2.01;86.31;100021.22;1794878;80;21166;-60
2021/03/02 01:45:17;;;;;;;14.60;7.80;;;;;;;1.99;86.42;100015.54;1794991;80;21656;-60
2021/03/02 01:47:49;;;;;;;14.10;8.83;;;;;;;1.95;86.52;100015.73;1794729;80;21264;-59
2021/03/02 01:50:21;;;;;;;13.98;7.35;;;;;;;1.90;86.79;100011.61;1794965;79;21158;-60
2021/03/02 01:52:51;;;;;;;14.23;7.12;;;;;;;1.90;87.01;100008.20;1794822;80;21154;-61
2021/03/02 01:55:19;;;;;;;15.53;8.68;;;;;;;1.90;87.10;100012.89;1794730;79;21298;-62
2021/03/02 01:57:48;;;;;;;11.35;6.83;;;;;;;1.91;87.23;99999.80;1794718;79;21280;-59
2021/03/02 02:00:32;;;;;;;14.03;7.72;;;;;;;1.87;87.28;99998.70;1794814;80;21278;-62
2021/03/02 02:03:40;;;;;;;13.85;7.47;;;;;;;1.85;87.51;99999.00;1795084;79;21693;-58
2021/03/02 02:06:45;;;;;;;13.38;7.35;;;;;;;1.83;87.54;99996.78;1795032;79;21127;-60
2021/03/02 02:09:37;;;;;;;15.10;7.75;;;;;;;1.84;87.74;99991.28;1794995;79;21142;-60
2021/03/02 02:12:34;;;;;;;15.63;7.37;;;;;;;1.86;87.82;99985.91;1795366;78;21284;-63
2021/03/02 02:15:22;;;;;;;13.65;7.85;;;;;;;1.85;87.79;99981.18;1794707;80;21118;-59
2021/03/02 02:18:12;;;;;;;12.93;7.00;;;;;;;1.83;87.99;99975.51;1802354;79;21182;-62
2021/03/02 02:20:54;;;;;;;10.70;7.15;;;;;;;1.82;88.02;99973.36;1799106;79;21297;-61
2021/03/02 02:23:36;;;;;;;13.55;6.87;;;;;;;1.84;88.11;99972.20;1794210;79;21568;-60
2021/03/02 02:26:29;;;;;;;14.15;7.22;;;;;;;1.86;88.17;99982.09;1794686;78;21307;-58
2021/03/02 02:28:59;;;;;;;13.55;7.33;;;;;;;1.86;88.23;99990.59;1794816;80;21158;-60
2021/03/02 02:31:28;;;;;;;13.35;7.95;;;;;;;1.94;88.27;99988.52;1794900;79;21150;-59
2021/03/02 02:33:57;;;;;;;13.08;7.90;;;;;;;1.99;88.26;99979.91;1788236;79;21273;-61
2021/03/02 02:36:25;;;;;;;13.38;7.97;;;;;;;2.06;88.24;99969.28;1781060;79;21273;-61
2021/03/02 02:38:57;;;;;;;15.30;7.67;;;;;;;2.13;88.06;99964.66;1780847;79;21257;-63
2021/03/02 02:41:28;;;;;;;13.30;7.35;;;;;;;2.19;87.86;99966.72;1780810;79;21270;-55
2021/03/02 02:43:58;;;;;;;14.30;7.67;;;;;;;2.24;87.72;99953.86;1780968;79;21107;-61
2021/03/02 02:46:27;;;;;;;12.80;7.42;;;;;;;2.28;87.59;99951.97;1780869;80;21208;-61
2021/03/02 02:48:57;;;;;;;17.23;8.13;;;;;;;2.30;87.41;99950.39;1780841;80;21301;-62
2021/03/02 02:51:26;;;;;;;17.10;8.60;;;;;;;2.27;87.19;99954.04;1780846;80;21284;-61
2021/03/02 02:53:55;;;;;;;13.80;8.05;;;;;;;2.22;87.23;99951.61;1781012;80;21229;-58
2021/03/02 02:56:24;;;;;;;13.32;8.00;;;;;;;2.23;87.27;99948.66;1780840;80;21147;-60
2021/03/02 02:59:10;;;;;;;18.32;8.93;;;;;;;2.23;87.32;99943.57;1781103;80;21273;-58
2021/03/02 03:01:43;;;;;;;15.65;8.50;;;;;;;2.20;87.31;99932.81;1780903;79;21123;-58
2021/03/02 03:04:15;;;;;;;14.10;8.28;;;;;;;2.20;87.28;99934.08;1781048;80;21151;-59
2021/03/02 03:06:44;;;;;;;;;;;;;;;2.18;87.26;99939.07;1783619;80;21155;-61
2021/03/02 03:09:13;;;;;;;12.07;7.67;;;;;;;2.17;87.32;99927.54;1780856;80;20122;-59
2021/03/02 03:11:46;;;;;;;12.45;7.65;;;;;;;2.16;87.28;99915.58;1781068;80;21146;-60
2021/03/02 03:14:16;;;;;;;12.73;8.50;;;;;;;2.16;87.28;99922.84;1780854;80;21139;-58
2021/03/02 03:16:45;;;;;;;14.38;7.85;;;;;;;2.14;87.17;99926.09;1780863;79;21301;-61
2021/03/02 03:19:21;;;;;;;16.00;8.78;;;;;;;2.12;87.23;99940.39;1781096;80;21138;-62
2021/03/02 03:21:49;;;;;;;13.55;8.23;;;;;;;2.07;87.39;99936.69;1780235;79;21166;-60
2021/03/02 03:24:17;;;;;;;14.70;8.33;;;;;;;2.04;87.49;99951.78;1781224;80;21277;-65
2021/03/02 03:26:47;;;;;;;17.60;8.05;;;;;;;2.02;87.56;99938.95;1781116;80;21131;-61
2021/03/02 03:29:16;;;;;;;15.72;9.00;;;;;;;2.01;87.74;99936.30;1781104;80;21152;-60
2021/03/02 03:31:45;;;;;;;14.25;8.90;;;;;;;2.04;87.77;99932.69;1780946;80;21321;-60
2021/03/02 03:34:15;;;;;;;15.15;9.38;;;;;;;2.04;87.73;99921.23;1787175;80;21158;-62
2021/03/02 03:36:44;;;;;;;14.60;9.43;;;;;;;2.02;87.83;99921.12;1795020;80;21150;-64
2021/03/02 03:39:12;;;;;;;15.45;9.20;;;;;;;2.04;87.82;99923.78;1795013;80;21162;-59
2021/03/02 03:41:40;;;;;;;14.23;10.05;;;;;;;2.08;87.88;99907.88;1794926;80;21182;-59
2021/03/02 03:44:10;;;;;;;14.20;8.55;;;;;;;2.07;87.71;99914.65;1794879;78;21288;-60
2021/03/02 03:46:38;;;;;;;15.88;10.18;;;;;;;2.06;87.88;99912.00;1794812;79;21312;-59
2021/03/02 03:49:07;;;;;;;17.60;10.38;;;;;;;2.05;87.84;99916.62;1795154;79;21138;-62
2021/03/02 03:51:38;;;;;;;17.02;10.75;;;;;;;2.05;87.84;99917.89;1794968;78;21158;-58
2021/03/02 03:54:07;;;;;;;16.82;9.90;;;;;;;2.00;87.91;99918.88;1794964;80;21127;-61
2021/03/02 03:56:36;;;;;;;16.35;9.83;;;;;;;2.04;88.07;99911.05;1794793;79;21133;-61
2021/03/02 03:59:04;;;;;;;20.12;10.85;;;;;;;2.12;87.87;99909.84;1794922;80;21138;-58
2021/03/02 04:01:33;;;;;;;18.80;10.80;;;;;;;2.15;87.63;99910.02;1794821;80;21147;-60
2021/03/02 04:04:02;;;;;;;16.73;10.80;;;;;;;2.18;87.79;99905.09;1794942;80;21110;-61
2021/03/02 04:06:31;;;;;;;17.27;10.72;;;;;;;2.22;87.54;99904.50;1794776;79;21134;-62
2021/03/02 04:08:59;;;;;;;19.35;11.43;;;;;;;2.20;87.45;99900.98;1803266;79;21180;-66
2021/03/02 04:11:27;;;;;;;18.17;10.98;;;;;;;2.24;87.44;99909.66;1794984;80;21264;-58
2021/03/02 04:13:55;;;;;;;16.15;10.85;;;;;;;2.27;87.32;99906.92;1794979;79;21127;-61
2021/03/02 04:16:24;;;;;;;15.43;10.70;;;;;;;2.25;87.26;99904.67;1794959;80;21158;-62
2021/03/02 04:18:51;;;;;;;18.30;11.05;;;;;;;2.14;87.13;99896.81;1794785;78;21197;-60
2021/03/02 04:21:19;;;;;;;18.12;11.85;;;;;;;1.99;87.62;99887.86;1795120;79;21146;-61
2021/03/02 04:23:47;;;;;;;17.62;10.10;;;;;;;1.91;87.89;99895.04;1794796;78;21134;-60
2021/03/02 04:26:15;;;;;;;16.90;10.20;;;;;;;1.92;88.20;99883.19;1795141;80;21213;-62
2021/03/02 04:28:43;;;;;;;16.23;10.05;;;;;;;1.87;88.22;99885.45;1795121;79;21525;-62
2021/03/02 04:31:11;;;;;;;16.90;11.12;;;;;;;1.86;88.50;99881.16;1795043;79;21233;-62
2021/03/02 04:33:38;;;;;;;18.45;9.05;;;;;;;1.87;88.49;99871.45;1794745;80;21133;-60
2021/03/02 04:36:08;;;;;;;13.65;8.95;;;;;;;1.87;88.65;99875.27;1794790;78;21264;-62
2021/03/02 04:38:36;;;;;;;14.58;9.13;;;;;;;1.91;88.66;99876.34;1795076;78;21146;-64
2021/03/02 04:41:04;;;;;;;16.75;8.85;;;;;;;1.91;88.56;99883.58;1794986;78;21303;-59
2021/03/02 04:43:32;;;;;;;15.60;9.45;;;;;;;1.97;88.65;99875.83;1795007;80;21292;-62
2021/03/02 04:45:59;;;;;;;13.80;9.03;;;;;;;1.98;88.44;99875.03;1794940;79;21272;-61
2021/03/02 04:48:27;;;;;;;15.98;8.75;;;;;;;1.94;88.57;99873.58;1794769;78;21111;-61
2021/03/02 04:50:55;;;;;;;16.00;8.83;;;;;;;1.92;88.63;99861.55;1794887;80;21134;-60
2021/03/02 04:53:23;;;;;;;11.43;7.45;;;;;;;1.87;88.72;99865.09;1794811;80;21138;-60
2021/03/02 04:55:51;;;;;;;13.55;7.78;;;;;;;1.86;88.87;99870.98;1794769;80;21138;-61
2021/03/02 04:58:19;;;;;;;13.20;8.28;;;;;;;1.90;88.78;99863.99;1794850;78;21327;-61
2021/03/02 05:00:47;;;;;;;13.53;8.28;;;;;;;1.88;88.80;99859.23;1795053;79;21118;-60
2021/03/02 05:03:14;;;;;;;13.15;8.35;;;;;;;1.83;88.79;99861.89;1794940;80;21252;-58
2021/03/02 05:05:42;;;;;;;15.93;8.28;;;;;;;1.75;89.08;99852.89;1794771;78;21146;-58
2021/03/02 05:08:10;;;;;;;16.27;7.90;;;;;;;1.67;89.47;99852.83;1794847;80;21256;-61
2021/03/02 05:10:38;;;;;;;17.30;8.38;;;;;;;1.71;89.62;99853.52;1794741;80;21261;-62
2021/03/02 05:13:06;;;;;;;11.80;7.50;;;;;;;1.77;89.56;99844.97;1795065;79;21130;-61
2021/03/02 05:15:34;;;;;;;13.83;7.35;;;;;;;1.79;89.34;99848.48;1794693;78;21139;-61
2021/03/02 05:18:01;;;;;;;10.75;6.40;;;;;;;1.77;89.48;99864.05;1794921;78;21295;-61
2021/03/02 05:20:31;;;;;;;12.25;7.45;;;;;;;1.78;89.44;99843.30;1794730;78;21714;-62
2021/03/02 05:22:59;;;;;;;14.78;7.97;;;;;;;1.74;89.39;99856.23;1794753;78;21126;-63
2021/03/02 05:25:28;;;;;;;9.98;6.95;;;;;;;1.69;89.66;99872.89;1794727;78;21709;-63
2021/03/02 05:27:56;;;;;;;13.85;8.53;;;;;;;1.66;89.85;99861.27;1794697;79;21137;-58
2021/03/02 05:30:25;;;;;;;12.95;7.62;;;;;;;1.60;90.05;99840.52;1794818;80;21142;-59
2021/03/02 05:32:53;;;;;;;13.53;7.97;;;;;;;1.54;90.46;99855.42;1794687;78;21363;-62
2021/03/02 05:35:21;;;;;;;14.47;7.72;;;;;;;1.52;90.55;99846.02;1790886;79;21166;-59
2021/03/02 05:37:49;;;;;;;13.20;7.58;;;;;;;1.49;90.77;99848.37;1789355;79;21131;-59
2021/03/02 05:40:17;;;;;;;12.93;8.18;;;;;;;1.46;90.87;99834.61;1789230;80;21212;-57
2021/03/02 05:42:45;;;;;;;21.02;8.23;;;;;;;1.42;91.03;99841.16;1789111;79;21299;-59
2021/03/02 05:45:14;;;;;;;14.75;7.65;;;;;;;1.40;91.25;99849.48;1789160;79;21149;-60
2021/03/02 05:47:43;;;;;;;14.18;8.03;;;;;;;1.42;91.37;99829.71;1789120;79;21166;-63
2021/03/02 05:50:13;;;;;;;14.25;7.97;;;;;;;1.47;91.25;99819.82;1789324;79;21168;-62
2021/03/02 05:52:41;;;;;;;13.03;7.85;;;;;;;1.47;91.20;99829.59;1789371;79;21569;-57
2021/03/02 05:55:10;;;;;;;15.90;8.78;;;;;;;1.45;91.28;99823.56;1789217;79;21154;-59
2021/03/02 05:57:39;;;;;;;15.15;8.78;;;;;;;1.43;91.37;99839.12;1789290;79;21146;-63
2021/03/02 06:00:08;;;;;;;13.30;7.85;;;;;;;1.39;91.58;99834.62;1789114;79;21141;-60
2021/03/02 06:02:35;;;;;;;15.60;9.40;;;;;;;1.38;91.77;99844.31;1789121;79;21119;-61
2021/03/02 06:05:06;;;;;;;13.95;8.28;;;;;;;1.40;91.91;99841.48;1789145;79;21135;-60
2021/03/02 06:07:34;;;;;;;18.85;9.78;;;;;;;1.41;91.89;99844.90;1789318;79;21592;-61
2021/03/02 06:10:03;;;;;;;14.35;9.50;;;;;;;1.40;91.97;99835.13;1789423;79;21288;-57
2021/03/02 06:12:56;;;;;;;17.70;9.95;;;;;;;1.43;91.99;99835.30;1789252;80;21151;-61
2021/03/02 06:15:25;;;;;;;;;;;;;;;1.49;91.88;99826.76;1791743;79;21308;-59
2021/03/02 06:18:18;;;;;;;18.40;10.15;;;;;;;1.51;91.95;99816.30;1789254;79;20471;-62
2021/03/02 06:20:49;;;;;;;17.37;10.43;;;;;;;1.54;91.86;99821.95;1790598;77;21271;-63
2021/03/02 06:23:29;;;;;;;19.35;10.03;;;;;;;1.57;91.83;99821.27;1789052;80;21134;-62
2021/03/02 06:26:14;;;;;;;18.67;10.75;;;;;;;1.64;91.69;99813.22;1789234;80;21305;-64
2021/03/02 06:28:45;;;;;;;21.50;11.18;;;;;;;1.68;91.54;99820.23;1789112;80;21136;-61
2021/03/02 06:31:35;;;;;;;20.25;11.18;;;;;;;1.68;91.26;99821.50;1789305;80;21329;-60
2021/03/02 06:34:16;;;;;;;20.70;10.95;;;;;;;1.68;91.36;99823.68;1789370;79;21130;-61
2021/03/02 06:37:01;;;;;;;22.50;12.73;;;;;;;1.68;91.42;99824.05;1797758;79;21110;-61
2021/03/02 06:39:39;;;;;;;25.52;13.08;;;;;;;1.69;91.22;99819.46;1795158;79;21164;-61
2021/03/02 06:42:22;;;;;;;24.95;13.28;;;;;;;1.59;91.39;99826.93;1793775;78;21290;-62
2021/03/02 06:45:04;;;;;;;22.73;11.68;;;;;;;1.57;91.62;99822.53;1797912;79;21314;-60
2021/03/02 06:47:35;;;;;;;;;;;;;;;1.59;91.78;99820.97;1798716;79;21201;-61
2021/03/02 06:50:14;;;;;;;24.40;13.28;;;;;;;1.59;91.71;99816.75;1797532;79;20474;-65
2021/03/02 06:52:44;;;;;;;28.83;15.13;;;;;;;1.58;91.84;99831.91;1799168;79;21164;-60
2021/03/02 06:55:22;;;;;;;25.20;14.15;;;;;;;1.58;91.94;99816.65;1796104;79;21261;-61
2021/03/02 06:57:50;;;;;;;24.50;12.53;;;;;;;1.60;91.90;99830.34;1799127;79;21159;-61
2021/03/02 07:00:33;;;;;;;27.40;14.43;;;;;;;1.60;91.97;99826.53;1795632;79;21183;-60
2021/03/02 07:03:02;;;;;;;28.90;14.58;;;;;;;1.61;91.99;99826.63;1791708;79;21115;-65
2021/03/02 07:05:55;;;;;;;29.65;15.32;;;;;;;1.67;91.88;99829.94;1812921;79;21217;-60
2021/03/02 07:08:40;;;;;;;28.83;15.20;;;;;;;1.66;91.89;99818.02;1874797;76;22202;-65
2021/03/02 07:11:08;;;;;;;31.27;15.85;;;;;;;1.61;91.94;99827.03;1836587;77;21079;-64
2021/03/02 07:13:44;;;;;;;27.70;15.55;;;;;;;1.66;91.98;99820.56;1832027;77;21278;-63
2021/03/02 07:16:17;;;;;;;30.75;15.58;;;;;;;1.65;91.84;99813.69;1836691;77;21180;-62
2021/03/02 07:18:51;;;;;;;30.30;15.90;;;;;;;1.63;91.83;99820.34;1841458;77;21110;-66
2021/03/02 07:21:46;;;;;;;31.40;14.63;;;;;;;1.66;91.98;99811.66;1867185;76;22580;-67
2021/03/02 07:24:15;;;;;;;36.60;15.38;;;;;;;1.61;91.86;99802.47;1836877;77;21620;-61
2021/03/02 07:26:45;;;;;;;33.23;17.23;;;;;;;1.59;91.91;99810.80;1837349;77;21261;-64
2021/03/02 07:29:14;;;;;;;35.88;17.52;;;;;;;1.59;91.86;99810.39;1768000;80;21296;-62
2021/03/02 07:31:43;;;;;;;38.63;17.00;;;;;;;1.59;91.77;99805.31;1779612;80;21134;-59
2021/03/02 07:34:12;;;;;;;39.03;17.60;;;;;;;1.63;91.84;99807.26;1768725;80;21229;-62
2021/03/02 07:36:43;;;;;;;40.28;19.27;;;;;;;1.70;91.67;99815.72;1777129;80;21150;-64
2021/03/02 07:39:15;;;;;;;41.33;21.00;;;;;;;1.76;91.41;99810.14;1770431;80;21308;-64
2021/03/02 07:41:45;;;;;;;40.83;20.27;;;;;;;1.73;91.32;99813.75;1769564;81;21167;-60
2021/03/02 07:44:14;;;;;;;43.75;19.60;;;;;;;1.70;91.37;99809.36;1768420;80;21609;-60
2021/03/02 07:46:45;;;;;;;38.45;17.30;;;;;;;1.78;91.45;99807.66;1772408;80;21637;-61
2021/03/02 07:49:29;;;;;;;43.35;20.88;;;;;;;1.88;91.13;99808.33;1781787;79;21146;-63
2021/03/02 07:52:09;;;;;;;40.20;19.60;;;;;;;1.98;91.01;99803.75;1773245;80;21283;-61
2021/03/02 07:54:37;;;;;;;41.65;18.10;;;;;;;2.08;90.58;99788.22;1780185;80;21188;-65
2021/03/02 07:57:18;;;;;;;44.53;21.33;;;;;;;2.08;90.16;99803.50;1777496;80;21159;-62
2021/03/02 08:00:18;;;;;;;46.68;20.37;;;;;;;2.08;90.06;99799.68;1777199;80;21232;-61
2021/03/02 08:03:19;;;;;;;45.50;21.33;;;;;;;2.04;89.98;99782.09;1786615;80;21141;-62
2021/03/02 08:05:50;;;;;;;42.62;19.77;;;;;;;2.02;89.78;99774.75;1777553;80;21276;-60
2021/03/02 08:08:28;;;;;;;46.63;21.27;;;;;;;1.95;89.81;99787.50;1780599;80;21276;-64
2021/03/02 08:11:02;;;;;;;45.80;21.07;;;;;;;1.91;89.87;99782.17;1775237;80;21261;-64
2021/03/02 08:13:43;;;;;;;48.45;21.07;;;;;;;1.94;89.94;99780.67;1777635;80;21138;-64
2021/03/02 08:16:13;;;;;;;49.93;21.45;;;;;;;1.96;89.92;99764.23;1769469;81;21292;-64
2021/03/02 08:18:44;;;;;;;43.58;19.75;;;;;;;1.97;89.82;99787.61;1769561;81;21181;-61
2021/03/02 08:21:21;;;;;;;46.02;20.77;;;;;;;2.03;89.66;99787.08;1760977;81;21246;-64
2021/03/02 08:24:00;;;;;;;50.50;21.68;;;;;;;2.05;89.59;99775.33;1819372;77;21160;-61
2021/03/02 08:26:33;;;;;;;49.18;21.00;;;;;;;2.11;89.55;99770.57;1819072;78;21137;-64
2021/03/02 08:29:18;;;;;;;44.25;20.25;;;;;;;2.13;89.06;99761.36;1819296;79;21159;-61
2021/03/02 08:31:49;;;;;;;48.95;21.93;;;;;;;2.10;89.17;99766.28;1818837;78;21285;-61
2021/03/02 08:34:20;;;;;;;46.05;20.05;;;;;;;2.09;89.15;99758.17;1818807;79;21282;-63
2021/03/02 08:36:53;;;;;;;39.10;17.52;;;;;;;2.06;89.11;99753.78;1818869;79;21147;-63
2021/03/02 08:39:21;;;;;;;37.25;18.50;;;;;;;2.11;89.05;99759.11;1822117;77;21118;-62
2021/03/02 08:41:50;;;;;;;39.65;19.40;;;;;;;2.11;88.94;99753.66;1818900;77;21554;-61
2021/03/02 08:44:20;;;;;;;39.08;17.37;;;;;;;2.23;89.04;99755.13;1818690;78;21285;-63
2021/03/02 08:46:51;;;;;;;37.55;18.65;;;;;;;2.26;88.34;99763.80;1818267;79;21155;-65
2021/03/02 08:49:19;;;;;;;47.17;19.98;;;;;;;2.27;88.36;99777.44;1821341;77;21146;-65
2021/03/02 08:51:48;;;;;;;36.40;16.73;;;;;;;2.26;88.44;99777.81;1821701;77;21213;-60
2021/03/02 08:54:15;;;;;;;39.48;17.82;;;;;;;2.23;88.31;99767.86;1752204;80;21304;-62
2021/03/02 08:56:44;;;;;;;43.95;17.85;;;;;;;2.18;88.57;99768.46;1821578;78;21146;-65
2021/03/02 08:59:14;;;;;;;43.15;19.00;;;;;;;2.18;88.62;99767.59;1821390;78;21143;-63
2021/03/02 09:01:43;;;;;;;39.83;19.77;;;;;;;2.19;88.69;99769.37;1821542;77;21139;-62
2021/03/02 09:04:19;;;;;;;36.50;18.57;;;;;;;2.27;88.56;99769.80;1821516;79;21142;-62
2021/03/02 09:06:50;;;;;;;35.05;16.48;;;;;;;2.30;88.50;99773.39;1821356;79;21119;-62
2021/03/02 09:09:24;;;;;;;36.88;17.85;;;;;;;2.38;88.20;99775.96;1821276;79;21162;-61
2021/03/02 09:11:59;;;;;;;35.65;15.75;;;;;;;2.42;87.95;99780.86;1782757;79;21111;-61
2021/03/02 09:14:34;;;;;;;34.58;16.73;;;;;;;2.38;87.78;99775.96;1821451;79;21138;-61
2021/03/02 09:17:06;;;;;;;35.00;17.45;;;;;;;2.33;87.89;99767.59;1821334;78;21292;-62
2021/03/02 09:19:39;;;;;;;39.00;18.00;;;;;;;2.23;88.18;99767.45;1821149;77;21150;-62
2021/03/02 09:22:17;;;;;;;37.30;17.25;;;;;;;2.26;88.25;99768.90;1840764;78;21158;-63
2021/03/02 09:24:56;;;;;;;33.60;17.65;;;;;;;2.33;88.32;99767.59;1840668;78;21289;-64
2021/03/02 09:27:36;;;;;;;35.70;17.10;;;;;;;2.45;88.38;99759.77;1784647;80;21311;-63
2021/03/02 09:30:07;;;;;;;38.08;18.00;;;;;;;2.62;88.04;99751.40;1815290;79;21222;-62
2021/03/02 09:32:35;;;;;;;33.42;16.75;;;;;;;2.62;87.37;99750.13;1783987;80;21628;-63
2021/03/02 09:35:10;;;;;;;40.38;17.30;;;;;;;2.65;87.28;99743.91;1856997;77;21146;-63
2021/03/02 09:37:39;;;;;;;34.30;15.53;;;;;;;2.64;87.20;99732.34;1782000;80;21303;-62
2021/03/02 09:40:15;;;;;;;33.10;16.65;;;;;;;2.51;87.12;99716.38;1857201;77;21292;-62
2021/03/02 09:42:57;;;;;;;42.38;19.25;;;;;;;2.39;87.49;99757.36;1784814;80;21517;-63
2021/03/02 09:45:26;;;;;;;34.23;16.80;;;;;;;2.45;87.64;99758.50;1857229;77;21142;-63
2021/03/02 09:48:09;;;;;;;36.55;17.45;;;;;;;2.41;87.75;99743.82;1778483;80;21345;-62
2021/03/02 09:50:39;;;;;;;33.20;16.83;;;;;;;2.39;87.96;99751.36;1753827;82;21162;-63
2021/03/02 09:53:18;;;;;;;35.80;16.62;;;;;;;2.47;87.83;99725.04;1823636;78;21149;-63
2021/03/02 09:55:47;;;;;;;37.25;18.25;;;;;;;2.46;87.80;99751.32;1823719;77;21115;-63
2021/03/02 09:58:20;;;;;;;39.25;18.23;;;;;;;2.44;87.83;99747.80;1823900;77;21222;-62
2021/03/02 10:00:58;;;;;;;36.42;16.67;;;;;;;2.45;87.86;99741.53;1823515;79;21264;-64
2021/03/02 10:03:26;;;;;;;39.33;17.45;;;;;;;2.52;87.68;99759.29;1823552;78;21254;-63
2021/03/02 10:06:01;;;;;;;37.13;17.87;;;;;;;2.46;87.66;99733.48;1838231;77;21232;-63
2021/03/02 10:08:38;;;;;;;34.23;16.85;;;;;;;2.41;87.82;99737.45;1784685;80;21300;-62
2021/03/02 10:11:18;;;;;;;38.45;17.90;;;;;;;2.43;87.88;99742.24;1857375;77;21667;-64
2021/03/02 10:13:52;;;;;;;41.13;19.37;;;;;;;2.44;87.99;99737.61;1784651;80;21123;-64
2021/03/02 10:16:48;;;;;;;40.08;19.02;;;;;;;2.46;87.79;99733.09;1857142;77;21154;-63
2021/03/02 10:19:29;;;;;;;39.08;18.60;;;;;;;2.45;87.73;99726.25;1815921;78;21158;-62
2021/03/02 10:21:56;;;;;;;37.20;18.82;;;;;;;2.41;87.90;99700.52;1846649;77;21135;-62
2021/03/02 10:24:31;;;;;;;40.28;18.07;;;;;;;2.44;88.12;99707.05;1774453;81;21230;-63
2021/03/02 10:27:02;;;;;;;42.73;20.90;;;;;;;2.53;87.62;99699.92;1846050;78;21339;-63
2021/03/02 10:29:30;;;;;;;42.60;20.62;;;;;;;2.57;87.67;99688.71;1773896;81;21600;-62
2021/03/02 10:31:59;;;;;;;34.15;17.12;;;;;;;2.64;87.50;99695.40;1845730;78;21390;-62
2021/03/02 10:34:33;;;;;;;46.98;21.52;;;;;;;2.69;87.02;99671.04;1845730;78;21158;-63
2021/03/02 10:36:57;;;;;;;42.27;20.00;;;;;;;2.67;86.93;99685.36;1845315;78;21467;-63
2021/03/02 10:39:25;;;;;;;37.58;17.55;;;;;;;2.69;86.86;99678.69;1836408;78;21280;-63
2021/03/02 10:41:53;;;;;;;40.67;19.70;;;;;;;2.75;86.81;99682.86;1818949;79;21127;-62
2021/03/02 10:44:21;;;;;;;43.65;20.92;;;;;;;2.78;86.69;99672.41;1818669;79;21107;-62
2021/03/02 10:46:49;;;;;;;43.70;21.27;;;;;;;2.91;86.58;99677.77;1818937;79;21146;-64
2021/03/02 10:49:17;;;;;;;41.23;19.30;;;;;;;3.02;86.01;99676.64;1752308;82;21329;-63
2021/03/02 10:51:46;;;;;;;43.35;21.25;;;;;;;3.01;85.70;99665.11;1751867;82;21303;-62
2021/03/02 10:54:14;;;;;;;43.05;20.88;;;;;;;3.09;85.43;99654.90;1818957;79;21146;-63
2021/03/02 10:56:41;;;;;;;42.35;21.37;;;;;;;3.16;84.84;99653.15;1751970;82;21174;-64
2021/03/02 10:59:09;;;;;;;45.52;20.82;;;;;;;3.14;84.81;99651.31;1752057;82;21292;-63
2021/03/02 11:01:37;;;;;;;47.78;22.62;;;;;;;3.13;84.68;99664.84;1819425;78;21146;-62
2021/03/02 11:04:07;;;;;;;42.00;19.80;;;;;;;3.07;84.44;99667.96;1774047;81;21675;-63
2021/03/02 11:06:35;;;;;;;43.58;20.95;;;;;;;3.05;84.78;99654.25;1845866;77;21142;-64
2021/03/02 11:09:04;;;;;;;40.12;19.55;;;;;;;3.07;84.72;99665.41;1845771;77;21131;-62
2021/03/02 11:11:32;;;;;;;46.95;22.17;;;;;;;3.13;84.56;99653.37;1846215;78;21130;-62
2021/03/02 11:14:00;;;;;;;41.70;20.25;;;;;;;3.18;84.10;99646.45;1846104;77;21143;-63
2021/03/02 11:16:27;;;;;;;43.35;20.50;;;;;;;3.23;84.06;99636.09;1846122;78;21147;-63
2021/03/02 11:18:57;;;;;;;44.95;21.05;;;;;;;3.30;83.60;99626.19;1838143;77;21582;-63
2021/03/02 11:21:26;;;;;;;47.35;19.10;;;;;;;3.28;83.18;99622.67;1812746;79;21143;-60
2021/03/02 11:23:53;;;;;;;44.13;21.60;;;;;;;3.19;83.08;99626.52;1813205;78;21289;-62
2021/03/02 11:26:21;;;;;;;40.90;19.95;;;;;;;3.13;83.26;99624.04;1813051;78;21265;-63
2021/03/02 11:28:49;;;;;;;39.85;19.20;;;;;;;3.13;83.17;99618.57;1812603;78;21162;-63
2021/03/02 11:31:17;;;;;;;40.23;20.88;;;;;;;3.16;83.32;99613.62;1812847;78;21107;-64
2021/03/02 11:33:44;;;;;;;43.83;20.48;;;;;;;3.24;83.26;99607.63;1812918;79;21278;-62
2021/03/02 11:36:13;;;;;;;41.75;20.45;;;;;;;3.28;82.84;99609.92;1812502;79;21163;-63
2021/03/02 11:38:40;;;;;;;50.45;22.82;;;;;;;3.33;82.80;99612.30;1812792;79;21171;-64
2021/03/02 11:41:08;;;;;;;45.58;20.62;;;;;;;3.34;82.42;99609.84;1812822;79;21148;-63
2021/03/02 11:43:36;;;;;;;38.35;21.40;;;;;;;3.33;82.30;99615.72;1812852;79;21149;-63
2021/03/02 11:46:04;;;;;;;40.78;19.30;;;;;;;3.36;81.92;99599.69;1812609;79;21270;-63
2021/03/02 11:48:33;;;;;;;42.23;20.60;;;;;;;3.37;81.65;99602.33;1824903;78;21589;-62
2021/03/02 11:51:01;;;;;;;42.30;20.48;;;;;;;3.43;81.35;99585.17;1845820;78;21545;-64
2021/03/02 11:53:28;;;;;;;44.70;21.25;;;;;;;3.47;81.21;99594.73;1763513;81;21184;-63